sensor_id;sensor_type;location;lat;lon;timestamp;temperature;humidity
3860;DHT22;1945;52.036;8.614;2023-07-31T00:01:07;16.00;99.90
3860;DHT22;1945;52.036;8.614;2023-07-31T00:03:34;16.00;99.90
3860;DHT22;1945;52.036;8.614;2023-07-31T00:06:02;16.00;99.90
3860;DHT22;1945;52.036;8.614;2023-07-31T00:08:29;16.00;99.90
3860;DHT22;1945;52.036;8.614;2023-07-31T00:10:56;16.00;99.90
3860;DHT22;1945;52.036;8.614;2023-07-31T00:13:22;16.00;99.90
3860;DHT22;1945;52.036;8.614;2023-07-31T00:15:49;16.10;99.90
3860;DHT22;1945;52.036;8.614;2023-07-31T00:18:16;16.00;99.90
3860;DHT22;1945;52.036;8.614;2023-07-31T00:20:43;16.10;99.90
3860;DHT22;1945;52.036;8.614;2023-07-31T00:23:11;16.10;99.90
3860;DHT22;1945;52.036;8.614;2023-07-31T00:25:37;16.10;99.90
3860;DHT22;1945;52.036;8.614;2023-07-31T00:28:04;16.10;99.90
3860;DHT22;1945;52.036;8.614;2023-07-31T00:30:32;16.10;99.90
3860;DHT22;1945;52.036;8.614;2023-07-31T00:32:58;16.10;99.90
3860;DHT22;1945;52.036;8.614;2023-07-31T00:35:25;16.20;99.90
3860;DHT22;1945;52.036;8.614;2023-07-31T00:37:52;16.20;99.90
3860;DHT22;1945;52.036;8.614;2023-07-31T00:40:20;16.20;99.90
3860;DHT22;1945;52.036;8.614;2023-07-31T00:42:47;16.20;99.90
3860;DHT22;1945;52.036;8.614;2023-07-31T00:45:13;16.10;99.90
3860;DHT22;1945;52.036;8.614;2023-07-31T00:47:40;16.30;99.90
3860;DHT22;1945;52.036;8.614;2023-07-31T00:50:08;16.20;99.90
3860;DHT22;1945;52.036;8.614;2023-07-31T00:52:35;16.10;99.90
3860;DHT22;1945;52.036;8.614;2023-07-31T00:55:02;16.20;99.90
3860;DHT22;1945;52.036;8.614;2023-07-31T00:57:31;16.20;99.90
3860;DHT22;1945;52.036;8.614;2023-07-31T00:59:58;16.20;99.90
3860;DHT22;1945;52.036;8.614;2023-07-31T01:02:25;16.20;99.90
3860;DHT22;1945;52.036;8.614;2023-07-31T01:04:52;16.20;99.90
3860;DHT22;1945;52.036;8.614;2023-07-31T01:07:24;16.10;99.90
3860;DHT22;1945;52.036;8.614;2023-07-31T01:09:59;16.10;99.90
3860;DHT22;1945;52.036;8.614;2023-07-31T01:12:32;16.10;99.90
3860;DHT22;1945;52.036;8.614;2023-07-31T01:15:04;16.10;99.90
3860;DHT22;1945;52.036;8.614;2023-07-31T01:17:31;16.00;99.90
3860;DHT22;1945;52.036;8.614;2023-07-31T01:20:01;16.10;99.90
3860;DHT22;1945;52.036;8.614;2023-07-31T01:22:42;16.10;99.90
3860;DHT22;1945;52.036;8.614;2023-07-31T01:25:24;16.10;99.90
3860;DHT22;1945;52.036;8.614;2023-07-31T01:28:01;16.10;99.90
3860;DHT22;1945;52.036;8.614;2023-07-31T01:30:33;16.00;99.90
3860;DHT22;1945;52.036;8.614;2023-07-31T01:33:02;15.90;99.90
3860;DHT22;1945;52.036;8.614;2023-07-31T01:35:33;15.90;99.90
3860;DHT22;1945;52.036;8.614;2023-07-31T01:38:00;15.90;99.90
3860;DHT22;1945;52.036;8.614;2023-07-31T01:40:26;15.80;99.90
3860;DHT22;1945;52.036;8.614;2023-07-31T01:42:55;15.80;99.90
3860;DHT22;1945;52.036;8.614;2023-07-31T01:45:21;15.80;99.90
3860;DHT22;1945;52.036;8.614;2023-07-31T01:47:48;15.80;99.90
3860;DHT22;1945;52.036;8.614;2023-07-31T01:50:15;15.70;99.90
3860;DHT22;1945;52.036;8.614;2023-07-31T01:52:41;15.70;99.90
3860;DHT22;1945;52.036;8.614;2023-07-31T01:55:08;15.60;99.90
3860;DHT22;1945;52.036;8.614;2023-07-31T01:57:36;15.50;99.90
3860;DHT22;1945;52.036;8.614;2023-07-31T02:00:05;15.60;99.90
3860;DHT22;1945;52.036;8.614;2023-07-31T02:02:32;15.50;99.90
3860;DHT22;1945;52.036;8.614;2023-07-31T02:04:59;15.50;99.90
3860;DHT22;1945;52.036;8.614;2023-07-31T02:07:26;15.40;99.90
3860;DHT22;1945;52.036;8.614;2023-07-31T02:09:52;15.50;99.90
3860;DHT22;1945;52.036;8.614;2023-07-31T02:12:19;15.50;99.90
3860;DHT22;1945;52.036;8.614;2023-07-31T02:14:46;15.40;99.90
3860;DHT22;1945;52.036;8.614;2023-07-31T02:17:14;15.40;99.90
3860;DHT22;1945;52.036;8.614;2023-07-31T02:19:41;15.40;99.90
3860;DHT22;1945;52.036;8.614;2023-07-31T02:22:07;15.30;99.90
3860;DHT22;1945;52.036;8.614;2023-07-31T02:24:34;15.30;99.90
3860;DHT22;1945;52.036;8.614;2023-07-31T02:27:01;15.30;99.90
3860;DHT22;1945;52.036;8.614;2023-07-31T02:29:27;15.30;99.90
3860;DHT22;1945;52.036;8.614;2023-07-31T02:31:54;15.30;99.90
3860;DHT22;1945;52.036;8.614;2023-07-31T02:34:22;15.20;99.90
3860;DHT22;1945;52.036;8.614;2023-07-31T02:36:49;15.20;99.90
3860;DHT22;1945;52.036;8.614;2023-07-31T02:39:15;15.20;99.90
3860;DHT22;1945;52.036;8.614;2023-07-31T02:41:42;15.10;99.90
3860;DHT22;1945;52.036;8.614;2023-07-31T02:44:09;15.10;99.90
3860;DHT22;1945;52.036;8.614;2023-07-31T02:46:35;15.10;99.90
3860;DHT22;1945;52.036;8.614;2023-07-31T02:49:02;15.10;99.90
3860;DHT22;1945;52.036;8.614;2023-07-31T02:51:30;15.10;99.90
3860;DHT22;1945;52.036;8.614;2023-07-31T02:53:57;15.00;99.90
3860;DHT22;1945;52.036;8.614;2023-07-31T02:56:24;15.10;99.90
3860;DHT22;1945;52.036;8.614;2023-07-31T02:58:50;15.00;99.90
3860;DHT22;1945;52.036;8.614;2023-07-31T03:01:17;15.10;99.90
3860;DHT22;1945;52.036;8.614;2023-07-31T03:03:44;15.10;99.90
3860;DHT22;1945;52.036;8.614;2023-07-31T03:06:11;15.10;99.90
3860;DHT22;1945;52.036;8.614;2023-07-31T03:08:39;15.00;99.90
3860;DHT22;1945;52.036;8.614;2023-07-31T03:11:05;15.10;99.90
3860;DHT22;1945;52.036;8.614;2023-07-31T03:13:32;15.00;99.90
3860;DHT22;1945;52.036;8.614;2023-07-31T03:15:59;15.10;99.90
3860;DHT22;1945;52.036;8.614;2023-07-31T03:18:25;15.10;99.90
3860;DHT22;1945;52.036;8.614;2023-07-31T03:20:52;15.10;99.90
3860;DHT22;1945;52.036;8.614;2023-07-31T03:23:19;15.10;99.90
3860;DHT22;1945;52.036;8.614;2023-07-31T03:25:58;15.10;99.90
3860;DHT22;1945;52.036;8.614;2023-07-31T03:28:24;15.20;99.90
3860;DHT22;1945;52.036;8.614;2023-07-31T03:30:51;15.20;99.90
3860;DHT22;1945;52.036;8.614;2023-07-31T03:33:18;15.30;99.90
3860;DHT22;1945;52.036;8.614;2023-07-31T03:35:45;15.30;99.90
3860;DHT22;1945;52.036;8.614;2023-07-31T03:38:12;15.30;99.90
3860;DHT22;1945;52.036;8.614;2023-07-31T03:40:38;15.40;99.90
3860;DHT22;1945;52.036;8.614;2023-07-31T03:43:06;15.40;99.90
3860;DHT22;1945;52.036;8.614;2023-07-31T03:45:33;15.50;99.90
3860;DHT22;1945;52.036;8.614;2023-07-31T03:48:00;15.50;99.90
3860;DHT22;1945;52.036;8.614;2023-07-31T03:50:27;15.50;99.90
3860;DHT22;1945;52.036;8.614;2023-07-31T03:52:54;15.60;99.90
3860;DHT22;1945;52.036;8.614;2023-07-31T03:55:20;15.60;99.90
3860;DHT22;1945;52.036;8.614;2023-07-31T03:57:48;15.60;99.90
3860;DHT22;1945;52.036;8.614;2023-07-31T04:00:16;15.70;99.90
3860;DHT22;1945;52.036;8.614;2023-07-31T04:02:43;15.70;99.90
3860;DHT22;1945;52.036;8.614;2023-07-31T04:05:09;15.70;99.90
3860;DHT22;1945;52.036;8.614;2023-07-31T04:07:37;15.70;99.90
3860;DHT22;1945;52.036;8.614;2023-07-31T04:10:04;15.70;99.90
3860;DHT22;1945;52.036;8.614;2023-07-31T04:12:31;15.70;99.90
3860;DHT22;1945;52.036;8.614;2023-07-31T04:14:57;15.70;99.90
3860;DHT22;1945;52.036;8.614;2023-07-31T04:17:25;15.70;99.90
3860;DHT22;1945;52.036;8.614;2023-07-31T04:19:52;15.70;99.90
3860;DHT22;1945;52.036;8.614;2023-07-31T04:22:19;15.80;99.90
3860;DHT22;1945;52.036;8.614;2023-07-31T04:24:46;15.80;99.90
3860;DHT22;1945;52.036;8.614;2023-07-31T04:27:12;15.80;99.90
3860;DHT22;1945;52.036;8.614;2023-07-31T04:29:39;15.70;99.90
3860;DHT22;1945;52.036;8.614;2023-07-31T04:32:08;15.80;99.90
3860;DHT22;1945;52.036;8.614;2023-07-31T04:34:36;15.80;99.90
3860;DHT22;1945;52.036;8.614;2023-07-31T04:37:03;15.80;99.90
3860;DHT22;1945;52.036;8.614;2023-07-31T04:39:30;15.80;99.90
3860;DHT22;1945;52.036;8.614;2023-07-31T04:41:56;15.80;99.90
3860;DHT22;1945;52.036;8.614;2023-07-31T04:44:23;15.80;99.90
3860;DHT22;1945;52.036;8.614;2023-07-31T04:46:50;15.80;99.90
3860;DHT22;1945;52.036;8.614;2023-07-31T04:49:16;15.80;99.90
3860;DHT22;1945;52.036;8.614;2023-07-31T04:51:45;15.80;99.90
3860;DHT22;1945;52.036;8.614;2023-07-31T04:54:12;15.80;99.90
3860;DHT22;1945;52.036;8.614;2023-07-31T04:56:40;15.70;99.90
3860;DHT22;1945;52.036;8.614;2023-07-31T04:59:07;15.70;99.90
3860;DHT22;1945;52.036;8.614;2023-07-31T05:01:33;15.80;99.90
3860;DHT22;1945;52.036;8.614;2023-07-31T05:04:00;15.80;99.90
3860;DHT22;1945;52.036;8.614;2023-07-31T05:06:27;15.80;99.90
3860;DHT22;1945;52.036;8.614;2023-07-31T05:08:55;15.80;99.90
3860;DHT22;1945;52.036;8.614;2023-07-31T05:11:22;15.80;99.90
3860;DHT22;1945;52.036;8.614;2023-07-31T05:13:49;15.80;99.90
3860;DHT22;1945;52.036;8.614;2023-07-31T05:16:15;15.80;99.90
3860;DHT22;1945;52.036;8.614;2023-07-31T05:18:42;15.80;99.90
3860;DHT22;1945;52.036;8.614;2023-07-31T05:21:09;15.80;99.90
3860;DHT22;1945;52.036;8.614;2023-07-31T05:23:35;15.80;99.90
3860;DHT22;1945;52.036;8.614;2023-07-31T05:26:04;15.90;99.90
3860;DHT22;1945;52.036;8.614;2023-07-31T05:28:31;15.90;99.90
3860;DHT22;1945;52.036;8.614;2023-07-31T05:30:59;15.90;99.90
3860;DHT22;1945;52.036;8.614;2023-07-31T05:33:26;15.90;99.90
3860;DHT22;1945;52.036;8.614;2023-07-31T05:35:53;15.90;99.90
3860;DHT22;1945;52.036;8.614;2023-07-31T05:38:19;15.90;99.90
3860;DHT22;1945;52.036;8.614;2023-07-31T05:40:46;15.90;99.90
3860;DHT22;1945;52.036;8.614;2023-07-31T05:43:14;15.90;99.90
3860;DHT22;1945;52.036;8.614;2023-07-31T05:45:42;15.90;99.90
3860;DHT22;1945;52.036;8.614;2023-07-31T05:48:09;15.90;99.90
3860;DHT22;1945;52.036;8.614;2023-07-31T05:50:35;15.90;99.90
3860;DHT22;1945;52.036;8.614;2023-07-31T05:53:04;16.00;99.90
3860;DHT22;1945;52.036;8.614;2023-07-31T05:55:31;16.00;99.90
3860;DHT22;1945;52.036;8.614;2023-07-31T05:57:58;16.00;99.90
3860;DHT22;1945;52.036;8.614;2023-07-31T06:00:26;16.00;99.90
3860;DHT22;1945;52.036;8.614;2023-07-31T06:02:53;16.00;99.90
3860;DHT22;1945;52.036;8.614;2023-07-31T06:05:20;16.00;99.90
3860;DHT22;1945;52.036;8.614;2023-07-31T06:07:46;16.00;99.90
3860;DHT22;1945;52.036;8.614;2023-07-31T06:10:13;16.00;99.90
3860;DHT22;1945;52.036;8.614;2023-07-31T06:12:40;16.00;99.90
3860;DHT22;1945;52.036;8.614;2023-07-31T06:15:07;16.00;99.90
3860;DHT22;1945;52.036;8.614;2023-07-31T06:17:36;16.00;99.90
3860;DHT22;1945;52.036;8.614;2023-07-31T06:20:03;16.00;99.90
3860;DHT22;1945;52.036;8.614;2023-07-31T06:22:31;16.00;99.90
3860;DHT22;1945;52.036;8.614;2023-07-31T06:24:58;16.10;99.90
3860;DHT22;1945;52.036;8.614;2023-07-31T06:27:25;16.10;99.90
3860;DHT22;1945;52.036;8.614;2023-07-31T06:29:51;16.10;99.90
3860;DHT22;1945;52.036;8.614;2023-07-31T06:32:18;16.30;99.90
3860;DHT22;1945;52.036;8.614;2023-07-31T06:34:46;16.20;99.90
3860;DHT22;1945;52.036;8.614;2023-07-31T06:37:13;16.20;99.90
3860;DHT22;1945;52.036;8.614;2023-07-31T06:39:40;16.20;99.90
3860;DHT22;1945;52.036;8.614;2023-07-31T06:42:06;16.20;99.90
3860;DHT22;1945;52.036;8.614;2023-07-31T06:44:33;16.20;99.90
3860;DHT22;1945;52.036;8.614;2023-07-31T06:47:00;16.20;99.90
3860;DHT22;1945;52.036;8.614;2023-07-31T06:49:27;16.20;99.90
3860;DHT22;1945;52.036;8.614;2023-07-31T06:51:55;16.30;99.90
3860;DHT22;1945;52.036;8.614;2023-07-31T06:54:22;16.30;99.90
3860;DHT22;1945;52.036;8.614;2023-07-31T06:56:48;16.20;99.90
3860;DHT22;1945;52.036;8.614;2023-07-31T06:59:15;16.30;99.90
3860;DHT22;1945;52.036;8.614;2023-07-31T07:01:42;16.30;99.90
3860;DHT22;1945;52.036;8.614;2023-07-31T07:04:09;16.30;99.90
3860;DHT22;1945;52.036;8.614;2023-07-31T07:06:35;16.40;99.90
3860;DHT22;1945;52.036;8.614;2023-07-31T07:09:03;16.40;99.90
3860;DHT22;1945;52.036;8.614;2023-07-31T07:11:31;16.50;99.90
3860;DHT22;1945;52.036;8.614;2023-07-31T07:13:57;16.50;99.90
3860;DHT22;1945;52.036;8.614;2023-07-31T07:16:24;16.50;99.90
3860;DHT22;1945;52.036;8.614;2023-07-31T07:18:51;16.50;99.90
3860;DHT22;1945;52.036;8.614;2023-07-31T07:21:18;16.60;99.90
3860;DHT22;1945;52.036;8.614;2023-07-31T07:23:44;16.60;99.90
3860;DHT22;1945;52.036;8.614;2023-07-31T07:26:12;16.60;99.90
3860;DHT22;1945;52.036;8.614;2023-07-31T07:28:39;16.50;99.90
3860;DHT22;1945;52.036;8.614;2023-07-31T07:31:06;16.60;99.90
3860;DHT22;1945;52.036;8.614;2023-07-31T07:33:32;16.70;99.90
3860;DHT22;1945;52.036;8.614;2023-07-31T07:36:00;16.70;99.90
3860;DHT22;1945;52.036;8.614;2023-07-31T07:38:27;16.90;99.90
3860;DHT22;1945;52.036;8.614;2023-07-31T07:40:54;16.90;99.90
3860;DHT22;1945;52.036;8.614;2023-07-31T07:43:22;16.90;99.90
3860;DHT22;1945;52.036;8.614;2023-07-31T07:45:49;16.80;99.90
3860;DHT22;1945;52.036;8.614;2023-07-31T07:48:16;16.90;99.90
3860;DHT22;1945;52.036;8.614;2023-07-31T07:50:43;16.90;99.90
3860;DHT22;1945;52.036;8.614;2023-07-31T07:53:10;16.70;99.90
3860;DHT22;1945;52.036;8.614;2023-07-31T07:55:36;16.70;99.90
3860;DHT22;1945;52.036;8.614;2023-07-31T07:58:03;16.70;99.90
3860;DHT22;1945;52.036;8.614;2023-07-31T08:00:31;16.60;99.90
3860;DHT22;1945;52.036;8.614;2023-07-31T08:02:58;16.60;99.90
3860;DHT22;1945;52.036;8.614;2023-07-31T08:05:25;16.70;99.90
3860;DHT22;1945;52.036;8.614;2023-07-31T08:07:52;16.60;99.90
3860;DHT22;1945;52.036;8.614;2023-07-31T08:10:18;16.60;99.90
3860;DHT22;1945;52.036;8.614;2023-07-31T08:12:45;16.60;99.90
3860;DHT22;1945;52.036;8.614;2023-07-31T08:15:12;16.70;99.90
3860;DHT22;1945;52.036;8.614;2023-07-31T08:17:40;16.70;99.90
3860;DHT22;1945;52.036;8.614;2023-07-31T08:20:08;16.60;99.90
3860;DHT22;1945;52.036;8.614;2023-07-31T08:22:35;16.70;99.90
3860;DHT22;1945;52.036;8.614;2023-07-31T08:25:02;16.80;99.90
3860;DHT22;1945;52.036;8.614;2023-07-31T08:27:28;16.80;99.90
3860;DHT22;1945;52.036;8.614;2023-07-31T08:29:55;16.70;99.90
3860;DHT22;1945;52.036;8.614;2023-07-31T08:32:22;16.80;99.90
3860;DHT22;1945;52.036;8.614;2023-07-31T08:34:50;17.00;99.90
3860;DHT22;1945;52.036;8.614;2023-07-31T08:37:17;17.20;99.90
3860;DHT22;1945;52.036;8.614;2023-07-31T08:39:43;17.40;99.90
3860;DHT22;1945;52.036;8.614;2023-07-31T08:42:10;17.40;99.90
3860;DHT22;1945;52.036;8.614;2023-07-31T08:44:37;17.40;99.90
3860;DHT22;1945;52.036;8.614;2023-07-31T08:47:05;17.30;99.90
3860;DHT22;1945;52.036;8.614;2023-07-31T08:49:32;17.40;99.90
3860;DHT22;1945;52.036;8.614;2023-07-31T08:52:01;17.50;99.90
3860;DHT22;1945;52.036;8.614;2023-07-31T08:54:29;17.50;99.90
3860;DHT22;1945;52.036;8.614;2023-07-31T08:56:58;17.50;99.90
3860;DHT22;1945;52.036;8.614;2023-07-31T08:59:27;17.60;99.90
3860;DHT22;1945;52.036;8.614;2023-07-31T09:01:55;17.70;99.90
3860;DHT22;1945;52.036;8.614;2023-07-31T09:04:24;17.70;99.90
3860;DHT22;1945;52.036;8.614;2023-07-31T09:06:57;17.70;99.90
3860;DHT22;1945;52.036;8.614;2023-07-31T09:09:27;17.60;99.90
3860;DHT22;1945;52.036;8.614;2023-07-31T09:11:55;17.50;99.90
3860;DHT22;1945;52.036;8.614;2023-07-31T09:14:23;17.60;99.90
3860;DHT22;1945;52.036;8.614;2023-07-31T09:16:55;17.50;99.90
3860;DHT22;1945;52.036;8.614;2023-07-31T09:19:25;17.40;99.90
3860;DHT22;1945;52.036;8.614;2023-07-31T09:21:53;17.40;99.90
3860;DHT22;1945;52.036;8.614;2023-07-31T09:24:26;17.50;99.90
3860;DHT22;1945;52.036;8.614;2023-07-31T09:26:54;17.60;99.90
3860;DHT22;1945;52.036;8.614;2023-07-31T09:29:21;17.80;99.90
3860;DHT22;1945;52.036;8.614;2023-07-31T09:31:48;17.90;99.90
3860;DHT22;1945;52.036;8.614;2023-07-31T09:34:15;18.00;99.90
3860;DHT22;1945;52.036;8.614;2023-07-31T09:36:42;17.90;99.90
3860;DHT22;1945;52.036;8.614;2023-07-31T09:39:10;17.90;99.90
3860;DHT22;1945;52.036;8.614;2023-07-31T09:41:39;17.80;99.90
3860;DHT22;1945;52.036;8.614;2023-07-31T09:44:06;17.80;99.90
3860;DHT22;1945;52.036;8.614;2023-07-31T09:46:35;17.90;99.90
3860;DHT22;1945;52.036;8.614;2023-07-31T09:49:04;18.00;99.90
3860;DHT22;1945;52.036;8.614;2023-07-31T09:51:31;18.00;99.90
3860;DHT22;1945;52.036;8.614;2023-07-31T09:54:04;18.20;99.90
3860;DHT22;1945;52.036;8.614;2023-07-31T09:56:32;18.10;99.90
3860;DHT22;1945;52.036;8.614;2023-07-31T09:59:01;18.10;99.90
3860;DHT22;1945;52.036;8.614;2023-07-31T10:01:30;17.90;99.90
3860;DHT22;1945;52.036;8.614;2023-07-31T10:03:58;17.80;99.90
3860;DHT22;1945;52.036;8.614;2023-07-31T10:06:26;17.90;99.90
3860;DHT22;1945;52.036;8.614;2023-07-31T10:08:53;17.90;99.90
3860;DHT22;1945;52.036;8.614;2023-07-31T10:11:22;18.00;99.90
3860;DHT22;1945;52.036;8.614;2023-07-31T10:13:50;18.00;99.90
3860;DHT22;1945;52.036;8.614;2023-07-31T10:16:19;17.90;99.90
3860;DHT22;1945;52.036;8.614;2023-07-31T10:18:47;18.00;99.90
3860;DHT22;1945;52.036;8.614;2023-07-31T10:21:16;17.90;99.90
3860;DHT22;1945;52.036;8.614;2023-07-31T10:23:43;18.10;99.90
3860;DHT22;1945;52.036;8.614;2023-07-31T10:26:11;18.20;99.90
3860;DHT22;1945;52.036;8.614;2023-07-31T10:28:39;18.20;99.90
3860;DHT22;1945;52.036;8.614;2023-07-31T10:31:06;18.20;99.90
3860;DHT22;1945;52.036;8.614;2023-07-31T10:33:35;18.30;99.90
3860;DHT22;1945;52.036;8.614;2023-07-31T10:36:12;18.30;99.90
3860;DHT22;1945;52.036;8.614;2023-07-31T10:38:40;18.40;99.90
3860;DHT22;1945;52.036;8.614;2023-07-31T10:41:10;18.50;99.90
3860;DHT22;1945;52.036;8.614;2023-07-31T10:43:37;18.50;99.90
3860;DHT22;1945;52.036;8.614;2023-07-31T10:46:06;18.30;99.90
3860;DHT22;1945;52.036;8.614;2023-07-31T10:48:35;18.30;99.90
3860;DHT22;1945;52.036;8.614;2023-07-31T10:51:07;18.40;99.90
3860;DHT22;1945;52.036;8.614;2023-07-31T10:53:35;18.20;99.90
3860;DHT22;1945;52.036;8.614;2023-07-31T10:56:05;18.10;99.90
3860;DHT22;1945;52.036;8.614;2023-07-31T10:58:32;17.90;99.90
3860;DHT22;1945;52.036;8.614;2023-07-31T11:01:02;18.20;99.90
3860;DHT22;1945;52.036;8.614;2023-07-31T11:03:43;18.20;99.90
3860;DHT22;1945;52.036;8.614;2023-07-31T11:06:10;18.10;99.90
3860;DHT22;1945;52.036;8.614;2023-07-31T11:08:42;18.20;99.90
3860;DHT22;1945;52.036;8.614;2023-07-31T11:11:11;18.50;99.90
3860;DHT22;1945;52.036;8.614;2023-07-31T11:13:42;18.30;99.90
3860;DHT22;1945;52.036;8.614;2023-07-31T11:16:10;18.40;99.90
3860;DHT22;1945;52.036;8.614;2023-07-31T11:18:39;18.40;99.90
3860;DHT22;1945;52.036;8.614;2023-07-31T11:21:08;18.30;99.90
3860;DHT22;1945;52.036;8.614;2023-07-31T11:23:38;18.20;99.90
3860;DHT22;1945;52.036;8.614;2023-07-31T11:26:05;18.40;99.90
3860;DHT22;1945;52.036;8.614;2023-07-31T11:28:33;18.20;99.90
3860;DHT22;1945;52.036;8.614;2023-07-31T11:31:00;18.20;99.90
3860;DHT22;1945;52.036;8.614;2023-07-31T11:33:27;18.40;99.90
3860;DHT22;1945;52.036;8.614;2023-07-31T11:35:54;18.30;99.90
3860;DHT22;1945;52.036;8.614;2023-07-31T11:38:28;18.60;99.90
3860;DHT22;1945;52.036;8.614;2023-07-31T11:40:56;18.60;99.90
3860;DHT22;1945;52.036;8.614;2023-07-31T11:43:23;18.60;99.90
3860;DHT22;1945;52.036;8.614;2023-07-31T11:45:51;18.50;99.90
3860;DHT22;1945;52.036;8.614;2023-07-31T11:48:19;18.50;99.90
3860;DHT22;1945;52.036;8.614;2023-07-31T11:50:47;18.30;99.90
3860;DHT22;1945;52.036;8.614;2023-07-31T11:53:17;18.40;99.90
3860;DHT22;1945;52.036;8.614;2023-07-31T11:55:46;18.60;99.90
3860;DHT22;1945;52.036;8.614;2023-07-31T11:58:15;18.80;99.90
3860;DHT22;1945;52.036;8.614;2023-07-31T12:00:42;18.90;99.90
3860;DHT22;1945;52.036;8.614;2023-07-31T12:03:10;19.10;99.90
3860;DHT22;1945;52.036;8.614;2023-07-31T12:05:37;19.20;99.90
3860;DHT22;1945;52.036;8.614;2023-07-31T12:08:09;19.20;99.90
3860;DHT22;1945;52.036;8.614;2023-07-31T12:10:36;19.20;99.90
3860;DHT22;1945;52.036;8.614;2023-07-31T12:13:06;19.10;99.90
3860;DHT22;1945;52.036;8.614;2023-07-31T12:15:35;19.00;99.90
3860;DHT22;1945;52.036;8.614;2023-07-31T12:18:04;18.80;99.90
3860;DHT22;1945;52.036;8.614;2023-07-31T12:20:32;18.80;99.90
3860;DHT22;1945;52.036;8.614;2023-07-31T12:22:59;18.60;99.90
3860;DHT22;1945;52.036;8.614;2023-07-31T12:25:30;18.80;99.90
3860;DHT22;1945;52.036;8.614;2023-07-31T12:27:57;18.90;99.90
3860;DHT22;1945;52.036;8.614;2023-07-31T12:30:31;19.00;99.90
3860;DHT22;1945;52.036;8.614;2023-07-31T12:33:03;19.20;99.90
3860;DHT22;1945;52.036;8.614;2023-07-31T12:35:35;19.30;99.90
3860;DHT22;1945;52.036;8.614;2023-07-31T12:38:02;19.10;99.90
3860;DHT22;1945;52.036;8.614;2023-07-31T12:40:30;19.20;99.90
3860;DHT22;1945;52.036;8.614;2023-07-31T12:42:56;19.10;99.90
3860;DHT22;1945;52.036;8.614;2023-07-31T12:45:23;19.00;99.90
3860;DHT22;1945;52.036;8.614;2023-07-31T12:47:51;18.90;99.90
3860;DHT22;1945;52.036;8.614;2023-07-31T12:50:18;18.80;99.90
3860;DHT22;1945;52.036;8.614;2023-07-31T12:52:45;18.70;99.90
3860;DHT22;1945;52.036;8.614;2023-07-31T12:55:12;18.50;99.90
3860;DHT22;1945;52.036;8.614;2023-07-31T12:57:40;18.50;99.90
3860;DHT22;1945;52.036;8.614;2023-07-31T13:00:08;18.50;99.90
3860;DHT22;1945;52.036;8.614;2023-07-31T13:02:35;18.50;99.90
3860;DHT22;1945;52.036;8.614;2023-07-31T13:05:03;18.50;99.90
3860;DHT22;1945;52.036;8.614;2023-07-31T13:07:30;18.30;99.90
3860;DHT22;1945;52.036;8.614;2023-07-31T13:09:57;18.20;99.90
3860;DHT22;1945;52.036;8.614;2023-07-31T13:12:24;18.50;99.90
3860;DHT22;1945;52.036;8.614;2023-07-31T13:14:51;18.70;99.90
3860;DHT22;1945;52.036;8.614;2023-07-31T13:17:18;19.00;99.90
3860;DHT22;1945;52.036;8.614;2023-07-31T13:19:44;19.20;99.90
3860;DHT22;1945;52.036;8.614;2023-07-31T13:22:12;19.30;99.90
3860;DHT22;1945;52.036;8.614;2023-07-31T13:24:39;19.50;99.90
3860;DHT22;1945;52.036;8.614;2023-07-31T13:27:06;19.60;99.90
3860;DHT22;1945;52.036;8.614;2023-07-31T13:29:32;19.70;99.90
3860;DHT22;1945;52.036;8.614;2023-07-31T13:31:59;19.80;99.90
3860;DHT22;1945;52.036;8.614;2023-07-31T13:34:26;19.80;99.90
3860;DHT22;1945;52.036;8.614;2023-07-31T13:36:54;20.00;99.90
3860;DHT22;1945;52.036;8.614;2023-07-31T13:39:22;20.30;99.90
3860;DHT22;1945;52.036;8.614;2023-07-31T13:41:49;20.20;1.00
3860;DHT22;1945;52.036;8.614;2023-07-31T13:44:16;20.30;99.90
3860;DHT22;1945;52.036;8.614;2023-07-31T13:46:43;20.00;1.00
3860;DHT22;1945;52.036;8.614;2023-07-31T13:49:09;20.00;8.50
3860;DHT22;1945;52.036;8.614;2023-07-31T13:51:36;19.70;24.00
3860;DHT22;1945;52.036;8.614;2023-07-31T13:54:04;19.80;11.80
3860;DHT22;1945;52.036;8.614;2023-07-31T13:56:33;19.70;60.00
3860;DHT22;1945;52.036;8.614;2023-07-31T13:59:00;20.00;91.20
3860;DHT22;1945;52.036;8.614;2023-07-31T14:01:27;20.10;50.00
3860;DHT22;1945;52.036;8.614;2023-07-31T14:03:54;20.10;1.00
3860;DHT22;1945;52.036;8.614;2023-07-31T14:06:20;20.10;1.00
3860;DHT22;1945;52.036;8.614;2023-07-31T14:08:47;20.10;1.00
3860;DHT22;1945;52.036;8.614;2023-07-31T14:11:14;20.00;1.00
3860;DHT22;1945;52.036;8.614;2023-07-31T14:13:43;20.00;1.00
3860;DHT22;1945;52.036;8.614;2023-07-31T14:16:10;20.00;1.00
3860;DHT22;1945;52.036;8.614;2023-07-31T14:18:36;19.70;1.00
3860;DHT22;1945;52.036;8.614;2023-07-31T14:21:03;19.60;1.00
3860;DHT22;1945;52.036;8.614;2023-07-31T14:23:30;19.50;1.00
3860;DHT22;1945;52.036;8.614;2023-07-31T14:25:57;19.50;1.00
3860;DHT22;1945;52.036;8.614;2023-07-31T14:28:23;19.40;41.50
3860;DHT22;1945;52.036;8.614;2023-07-31T14:30:52;19.30;1.00
3860;DHT22;1945;52.036;8.614;2023-07-31T14:33:18;19.20;40.00
3860;DHT22;1945;52.036;8.614;2023-07-31T14:35:45;19.20;17.50
3860;DHT22;1945;52.036;8.614;2023-07-31T14:38:12;19.40;30.50
3860;DHT22;1945;52.036;8.614;2023-07-31T14:40:39;19.40;1.00
3860;DHT22;1945;52.036;8.614;2023-07-31T14:43:06;19.30;1.00
3860;DHT22;1945;52.036;8.614;2023-07-31T14:45:33;19.30;1.00
3860;DHT22;1945;52.036;8.614;2023-07-31T14:48:01;19.10;1.00
3860;DHT22;1945;52.036;8.614;2023-07-31T14:50:28;19.20;1.00
3860;DHT22;1945;52.036;8.614;2023-07-31T14:52:55;19.10;78.70
3860;DHT22;1945;52.036;8.614;2023-07-31T14:55:21;19.10;41.10
3860;DHT22;1945;52.036;8.614;2023-07-31T14:57:48;19.00;51.30
3860;DHT22;1945;52.036;8.614;2023-07-31T15:00:15;19.00;69.70
3860;DHT22;1945;52.036;8.614;2023-07-31T15:02:42;19.20;93.80
3860;DHT22;1945;52.036;8.614;2023-07-31T15:05:10;19.30;7.40
3860;DHT22;1945;52.036;8.614;2023-07-31T15:07:37;19.40;1.00
3860;DHT22;1945;52.036;8.614;2023-07-31T15:10:04;19.50;1.00
3860;DHT22;1945;52.036;8.614;2023-07-31T15:12:32;19.50;1.00
3860;DHT22;1945;52.036;8.614;2023-07-31T15:14:58;19.70;1.00
3860;DHT22;1945;52.036;8.614;2023-07-31T15:17:25;19.70;1.00
3860;DHT22;1945;52.036;8.614;2023-07-31T15:19:52;19.60;1.00
3860;DHT22;1945;52.036;8.614;2023-07-31T15:22:20;19.50;1.00
3860;DHT22;1945;52.036;8.614;2023-07-31T15:24:47;19.50;1.00
3860;DHT22;1945;52.036;8.614;2023-07-31T15:27:14;19.40;1.00
3860;DHT22;1945;52.036;8.614;2023-07-31T15:29:41;19.40;1.00
3860;DHT22;1945;52.036;8.614;2023-07-31T15:32:09;19.30;1.00
3860;DHT22;1945;52.036;8.614;2023-07-31T15:34:35;19.40;2.90
3860;DHT22;1945;52.036;8.614;2023-07-31T15:37:02;19.30;35.40
3860;DHT22;1945;52.036;8.614;2023-07-31T15:39:31;19.30;2.90
3860;DHT22;1945;52.036;8.614;2023-07-31T15:41:57;19.30;11.40
3860;DHT22;1945;52.036;8.614;2023-07-31T15:44:24;19.20;52.20
3860;DHT22;1945;52.036;8.614;2023-07-31T15:46:51;19.20;50.70
3860;DHT22;1945;52.036;8.614;2023-07-31T15:49:18;19.20;61.60
3860;DHT22;1945;52.036;8.614;2023-07-31T15:51:44;19.10;89.20
3860;DHT22;1945;52.036;8.614;2023-07-31T15:54:11;19.20;93.40
3860;DHT22;1945;52.036;8.614;2023-07-31T15:56:39;19.10;99.90
3860;DHT22;1945;52.036;8.614;2023-07-31T15:59:06;19.20;99.90
3860;DHT22;1945;52.036;8.614;2023-07-31T16:01:33;19.10;71.30
3860;DHT22;1945;52.036;8.614;2023-07-31T16:04:00;19.10;93.40